createdAt,value
2019-05-14T17:44:03.714Z,102558.42
2019-05-14T17:46:31.505Z,102566.63
2019-05-14T17:48:59.090Z,102568.94
2019-05-14T17:51:28.278Z,102572.75
2019-05-14T17:53:55.164Z,102567.38
2019-05-14T17:56:22.958Z,102572.40
2019-05-14T17:58:49.729Z,102570.00
2019-05-14T18:01:18.285Z,102566.47
2019-05-14T18:03:45.457Z,102566.70
2019-05-14T18:06:12.260Z,102568.14
2019-05-14T18:08:39.813Z,102566.34
2019-05-14T18:11:08.777Z,102561.96
2019-05-14T18:13:35.793Z,102563.48
2019-05-14T18:16:02.579Z,102559.67
2019-05-14T18:18:30.376Z,102563.30
2019-05-14T18:20:58.235Z,102554.71
2019-05-14T18:23:25.723Z,102547.42
2019-05-14T18:26:07.174Z,102548.27
2019-05-14T18:28:22.010Z,102544.72
2019-05-14T18:30:49.181Z,102547.84
2019-05-14T18:33:18.574Z,102550.38
2019-05-14T18:35:47.502Z,102549.77
2019-05-14T18:38:14.717Z,102549.83
2019-05-14T18:40:41.482Z,102542.88
2019-05-14T18:43:08.660Z,102541.39
2019-05-14T18:45:35.380Z,102537.40
2019-05-14T18:48:02.187Z,102539.75
2019-05-14T18:50:29.324Z,102534.16
2019-05-14T18:52:59.464Z,102539.95
2019-05-14T18:55:25.192Z,102537.64
2019-05-14T18:57:51.994Z,102541.14
2019-05-14T19:00:18.885Z,102541.12
2019-05-14T19:02:48.058Z,102539.88
2019-05-14T19:05:18.153Z,102541.09
2019-05-14T19:07:44.780Z,102541.09
2019-05-14T19:10:11.823Z,102545.05
2019-05-14T19:12:39.029Z,102542.44
2019-05-14T19:15:08.681Z,102536.53
2019-05-14T19:17:35.037Z,102536.53
2019-05-14T19:20:01.882Z,102544.41
2019-05-14T19:22:28.783Z,102545.56
2019-05-14T19:24:55.733Z,102541.30
2019-05-14T19:27:22.559Z,102541.30
2019-05-14T19:29:49.331Z,102539.14
2019-05-14T19:32:16.135Z,102537.84
2019-05-14T19:34:42.834Z,102541.32
2019-05-14T19:37:09.638Z,102539.34
2019-05-14T19:39:38.562Z,102542.81
2019-05-14T19:42:05.634Z,102542.81
2019-05-14T19:44:32.361Z,102543.62
2019-05-14T19:46:59.296Z,102539.01
2019-05-14T19:49:25.979Z,102539.01
2019-05-14T19:51:52.878Z,102538.42
2019-05-14T19:54:19.706Z,102533.22
2019-05-14T19:56:55.519Z,102533.22
2019-05-14T19:59:15.094Z,102536.01
2019-05-14T20:01:41.761Z,102536.01
2019-05-14T20:04:09.568Z,102537.94
2019-05-14T20:06:38.833Z,102530.77
2019-05-14T20:09:09.253Z,102530.48
2019-05-14T20:11:35.239Z,102537.19
2019-05-14T20:14:02.095Z,102533.34
2019-05-14T20:16:29.634Z,102539.69
2019-05-14T20:18:58.029Z,102533.48
2019-05-14T20:21:25.606Z,102531.22
2019-05-14T20:23:52.396Z,102527.74
2019-05-14T20:26:19.159Z,102511.38
2019-05-14T20:28:48.226Z,102524.21
2019-05-14T20:31:14.566Z,102524.21
2019-05-14T20:33:41.288Z,102522.90
2019-05-14T20:36:08.966Z,102525.98
2019-05-14T20:38:35.638Z,102524.86
2019-05-14T20:41:02.662Z,102521.86
2019-05-14T20:43:29.361Z,102521.84
2019-05-14T20:45:56.049Z,102521.84
2019-05-14T20:48:22.746Z,102524.03
2019-05-14T20:50:49.534Z,102525.29
2019-05-14T20:53:18.558Z,102527.25
2019-05-14T20:55:45.185Z,102528.84
2019-05-14T20:58:11.847Z,102526.91
2019-05-14T21:00:41.512Z,102519.52
2019-05-14T21:03:08.910Z,102520.34
2019-05-14T21:05:35.776Z,102514.28
2019-05-14T21:08:02.695Z,102516.38
2019-05-14T21:10:29.486Z,102518.47
2019-05-14T21:12:58.032Z,102525.41
2019-05-14T21:15:24.790Z,102518.03
2019-05-14T21:17:51.448Z,102523.21
2019-05-14T21:20:18.573Z,102522.39
2019-05-14T21:22:48.351Z,102518.27
2019-05-14T21:25:14.787Z,102518.41
2019-05-14T21:27:48.280Z,102512.20
2019-05-14T21:30:10.518Z,102509.56
2019-05-14T21:32:41.967Z,102510.06
2019-05-14T21:35:05.968Z,102508.81
2019-05-14T21:37:32.652Z,102502.89
2019-05-14T21:39:59.305Z,102507.31
2019-05-14T21:42:28.390Z,102507.02
2019-05-14T21:44:54.631Z,102503.70
2019-05-14T21:47:21.923Z,102505.81
2019-05-14T21:49:48.618Z,102504.59
2019-05-14T21:52:15.333Z,102503.70
2019-05-14T21:54:42.007Z,102505.98
2019-05-14T21:57:11.820Z,102497.56
2019-05-14T21:59:38.998Z,102498.02
2019-05-14T22:02:06.764Z,102498.91
2019-05-14T22:04:33.418Z,102491.59
2019-05-14T22:07:00.562Z,102493.51
2019-05-14T22:09:28.484Z,102488.76
2019-05-14T22:11:55.434Z,102491.13
2019-05-14T22:14:22.089Z,102490.06
2019-05-14T22:16:49.225Z,102486.57
2019-05-14T22:19:15.888Z,102489.07
2019-05-14T22:21:42.574Z,102485.58
2019-05-14T22:24:09.232Z,102487.05
2019-05-14T22:26:38.637Z,102483.81
2019-05-14T22:29:04.821Z,102487.77
2019-05-14T22:31:32.124Z,102477.76
2019-05-14T22:33:58.950Z,102483.87
2019-05-14T22:36:25.764Z,102477.58
2019-05-14T22:38:52.453Z,102473.27
2019-05-14T22:41:19.490Z,102475.26
2019-05-14T22:43:48.823Z,102478.92
2019-05-14T22:46:15.266Z,102484.36
2019-05-14T22:48:41.930Z,102476.85
2019-05-14T22:51:08.818Z,102475.66
2019-05-14T22:53:35.539Z,102474.46
2019-05-14T22:56:02.224Z,102472.73
2019-05-14T22:58:28.948Z,102474.63
2019-05-14T23:01:06.875Z,102476.21
2019-05-14T23:03:24.289Z,102469.88
2019-05-14T23:05:51.322Z,102468.31
2019-05-14T23:08:18.487Z,102465.13
2019-05-14T23:10:45.281Z,102471.00
2019-05-14T23:13:11.945Z,102470.28
2019-05-14T23:15:38.744Z,102466.44
2019-05-14T23:18:05.532Z,102467.20
2019-05-14T23:20:32.211Z,102463.16
2019-05-14T23:22:58.921Z,102458.91
2019-05-14T23:25:26.057Z,102462.24
2019-05-14T23:27:52.730Z,102462.38
2019-05-14T23:30:33.476Z,102466.12
2019-05-14T23:33:00.466Z,102464.55
2019-05-14T23:35:28.546Z,102461.95
2019-05-14T23:37:55.253Z,102468.17
2019-05-14T23:40:22.055Z,102464.98
2019-05-14T23:42:49.115Z,102464.70
2019-05-14T23:45:18.986Z,102457.62
2019-05-14T23:47:45.581Z,102454.98
2019-05-14T23:50:12.589Z,102453.87
2019-05-14T23:52:39.259Z,102453.14
2019-05-14T23:55:08.349Z,102447.72
2019-05-14T23:57:34.647Z,102448.78
